Time;durP1;ratioP1;P1;durP2;ratioP2;P2;SDS_P1;SDS_P2;PMS_P1;PMS_P2;Temp;Humidity;BMP_temperature;BMP_pressure;BME280_temperature;BME280_humidity;BME280_pressure;Samples;Min_cycle;Max_cycle;Signal;HPM_P1;HPM_P2
2021/08/02 00:00:48;;;;;;;4.25;3.90;;;;;;;;;;4955189;29;20276;-85
2021/08/02 00:03:21;;;;;;;3.72;3.35;;;;;;;;;;4955120;29;20196;-86
2021/08/02 00:05:55;;;;;;;3.65;3.45;;;;;;;;;;4955068;29;20573;-86
2021/08/02 00:08:24;;;;;;;2.47;2.38;;;;;;;;;;4954720;29;20226;-86
2021/08/02 00:10:53;;;;;;;2.60;2.40;;;;;;;;;;4955415;29;20256;-86
2021/08/02 00:13:29;;;;;;;2.50;2.30;;;;;;;;;;4955616;29;20559;-86
2021/08/02 00:15:59;;;;;;;1.70;1.60;;;;;;;;;;4954696;29;20213;-86
2021/08/02 00:18:27;;;;;;;1.60;1.50;;;;;;;;;;4955134;28;20231;-86
2021/08/02 00:20:56;;;;;;;2.58;2.38;;;;;;;;;;4955105;29;20190;-86
2021/08/02 00:23:25;;;;;;;2.00;1.90;;;;;;;;;;4955027;29;20189;-86
2021/08/02 00:25:53;;;;;;;2.00;1.90;;;;;;;;;;4955048;29;20186;-86
2021/08/02 00:28:21;;;;;;;1.67;1.58;;;;;;;;;;4954579;29;20229;-86
2021/08/02 00:30:50;;;;;;;2.42;2.20;;;;;;;;;;4955486;28;20213;-87
2021/08/02 00:33:17;;;;;;;2.67;2.47;;;;;;;;;;4954907;29;20702;-86
2021/08/02 00:35:53;;;;;;;3.75;3.55;;;;;;;;;;4954945;29;20216;-86
2021/08/02 00:38:25;;;;;;;2.17;2.00;;;;;;;;;;4954624;29;20231;-85
2021/08/02 00:41:18;;;;;;;2.00;1.90;;;;;;;;;;4955244;29;20182;-86
2021/08/02 00:44:32;;;;;;;2.70;2.50;;;;;;;;;;4954918;29;20544;-87
2021/08/02 00:47:05;;;;;;;2.38;2.17;;;;;;;;;;4955192;28;20609;-87
2021/08/02 00:49:33;;;;;;;3.17;2.97;;;;;;;;;;4955438;29;20209;-85
2021/08/02 00:52:01;;;;;;;2.72;2.63;;;;;;;;;;4954791;29;20190;-86
2021/08/02 00:54:28;;;;;;;2.92;2.72;;;;;;;;;;4954035;29;20208;-86
2021/08/02 00:56:59;;;;;;;2.70;2.50;;;;;;;;;;4955522;29;20225;-86
2021/08/02 00:59:29;;;;;;;2.42;2.28;;;;;;;;;;4955346;29;20275;-87
2021/08/02 01:01:56;;;;;;;2.95;2.72;;;;;;;;;;4954629;29;20185;-87
2021/08/02 01:04:25;;;;;;;2.72;2.53;;;;;;;;;;4955094;29;20193;-86
2021/08/02 01:06:54;;;;;;;3.15;2.85;;;;;;;;;;4954901;29;20735;-86
2021/08/02 01:09:23;;;;;;;2.33;2.13;;;;;;;;;;4957490;28;20243;-86
2021/08/02 01:11:52;;;;;;;2.65;2.45;;;;;;;;;;4959248;29;20189;-86
2021/08/02 01:14:22;;;;;;;3.05;2.50;;;;;;;;;;4951713;29;20225;-86
2021/08/02 01:16:49;;;;;;;2.22;2.10;;;;;;;;;;4939468;29;20208;-86
2021/08/02 01:19:18;;;;;;;2.95;2.75;;;;;;;;;;4939278;29;20216;-87
2021/08/02 01:21:47;;;;;;;2.33;2.13;;;;;;;;;;4939661;29;20197;-86
2021/08/02 01:24:16;;;;;;;2.70;2.10;;;;;;;;;;4946285;29;20196;-85
2021/08/02 01:27:49;;;;;;;2.80;2.60;;;;;;;;;;4959494;28;20747;-85
2021/08/02 01:30:23;;;;;;;2.83;2.63;;;;;;;;;;4975795;28;20219;-85
2021/08/02 01:32:52;;;;;;;3.33;2.70;;;;;;;;;;4977321;28;20271;-86
2021/08/02 01:35:20;;;;;;;2.47;2.33;;;;;;;;;;4978048;28;20180;-86
2021/08/02 01:37:48;;;;;;;2.53;2.33;;;;;;;;;;4977977;28;20306;-85
2021/08/02 01:40:16;;;;;;;2.40;2.28;;;;;;;;;;4977368;28;20181;-85
2021/08/02 01:42:44;;;;;;;2.38;2.28;;;;;;;;;;4978198;28;20192;-86
2021/08/02 01:45:12;;;;;;;2.42;2.28;;;;;;;;;;4977861;28;20203;-86
2021/08/02 01:48:04;;;;;;;2.00;1.90;;;;;;;;;;4978014;28;20227;-86
2021/08/02 01:50:39;;;;;;;1.77;1.67;;;;;;;;;;4970779;28;20225;-86
2021/08/02 01:53:19;;;;;;;2.20;2.00;;;;;;;;;;4978102;28;20181;-85
2021/08/02 01:55:56;;;;;;;2.25;2.15;;;;;;;;;;4977470;28;20207;-85
2021/08/02 01:58:23;;;;;;;2.58;1.95;;;;;;;;;;4961261;28;20221;-86
2021/08/02 02:00:51;;;;;;;1.55;1.45;;;;;;;;;;4957326;29;20553;-86
2021/08/02 02:03:22;;;;;;;1.60;1.50;;;;;;;;;;4957641;29;20208;-85
2021/08/02 02:05:56;;;;;;;1.50;1.40;;;;;;;;;;4957955;29;20185;-86
2021/08/02 02:08:28;;;;;;;2.20;2.03;;;;;;;;;;4957616;28;20695;-85
2021/08/02 02:11:00;;;;;;;1.38;1.35;;;;;;;;;;4957866;29;20581;-86
2021/08/02 02:13:33;;;;;;;1.88;1.77;;;;;;;;;;4957644;29;20564;-85
2021/08/02 02:16:02;;;;;;;1.45;1.35;;;;;;;;;;4957399;29;20955;-85
2021/08/02 02:18:32;;;;;;;1.63;1.52;;;;;;;;;;4957053;28;20719;-86
2021/08/02 02:21:03;;;;;;;1.20;1.20;;;;;;;;;;4956097;28;20192;-86
2021/08/02 02:23:32;;;;;;;1.58;1.48;;;;;;;;;;4957164;29;20194;-86
2021/08/02 02:26:01;;;;;;;1.70;1.60;;;;;;;;;;4957385;29;20216;-86
2021/08/02 02:28:31;;;;;;;1.95;1.85;;;;;;;;;;4956810;28;20244;-85
2021/08/02 02:30:59;;;;;;;1.52;1.42;;;;;;;;;;4957279;29;20300;-86
2021/08/02 02:33:27;;;;;;;2.13;2.03;;;;;;;;;;4957307;29;20186;-85
2021/08/02 02:35:55;;;;;;;1.45;1.35;;;;;;;;;;4957398;29;20188;-86
2021/08/02 02:38:23;;;;;;;1.20;1.20;;;;;;;;;;4956756;28;20695;-85
2021/08/02 02:40:51;;;;;;;1.50;1.40;;;;;;;;;;4957030;29;20189;-85
2021/08/02 02:43:21;;;;;;;1.60;1.50;;;;;;;;;;4949444;29;20220;-85
2021/08/02 02:45:49;;;;;;;1.77;1.60;;;;;;;;;;4958165;29;20195;-85
2021/08/02 02:48:18;;;;;;;2.30;1.80;;;;;;;;;;4957795;28;20228;-86
2021/08/02 02:50:49;;;;;;;2.10;1.63;;;;;;;;;;4956909;29;20725;-85
2021/08/02 02:53:18;;;;;;;1.00;1.00;;;;;;;;;;4956768;29;20644;-85
2021/08/02 02:55:47;;;;;;;1.60;1.50;;;;;;;;;;4955937;29;20573;-86
2021/08/02 02:58:14;;;;;;;1.60;1.50;;;;;;;;;;4955365;28;20243;-86
2021/08/02 03:00:45;;;;;;;1.73;1.48;;;;;;;;;;4956517;29;20208;-86
2021/08/02 03:03:17;;;;;;;1.77;1.50;;;;;;;;;;4956587;29;20193;-86
2021/08/02 03:05:45;;;;;;;1.08;1.08;;;;;;;;;;4956552;29;20193;-86
2021/08/02 03:08:13;;;;;;;1.42;1.40;;;;;;;;;;4956219;28;20221;-86
2021/08/02 03:10:42;;;;;;;1.77;1.38;;;;;;;;;;4956228;29;20703;-86
2021/08/02 03:13:09;;;;;;;2.35;1.60;;;;;;;;;;4956459;29;20212;-86
2021/08/02 03:15:37;;;;;;;1.73;1.27;;;;;;;;;;4955927;29;20213;-86
2021/08/02 03:18:06;;;;;;;2.10;1.90;;;;;;;;;;4956173;28;20225;-85
2021/08/02 03:20:34;;;;;;;1.20;1.20;;;;;;;;;;4956113;29;20192;-86
2021/08/02 03:23:08;;;;;;;3.78;1.50;;;;;;;;;;4956061;29;20565;-87
2021/08/02 03:25:39;;;;;;;1.50;1.40;;;;;;;;;;4956120;29;20191;-86
2021/08/02 03:28:12;;;;;;;2.13;1.85;;;;;;;;;;4956049;28;20237;-86
2021/08/02 03:30:44;;;;;;;1.55;1.45;;;;;;;;;;4956122;29;20218;-86
2021/08/02 03:33:16;;;;;;;2.03;1.92;;;;;;;;;;4956197;29;20192;-85
2021/08/02 03:35:46;;;;;;;1.50;1.30;;;;;;;;;;4956258;29;20632;-86
2021/08/02 03:38:14;;;;;;;1.50;1.45;;;;;;;;;;4955998;28;20225;-86
2021/08/02 03:40:42;;;;;;;1.52;1.42;;;;;;;;;;4955675;29;20219;-86
2021/08/02 03:43:11;;;;;;;1.30;1.20;;;;;;;;;;4956391;29;20220;-85
2021/08/02 03:45:39;;;;;;;1.25;1.23;;;;;;;;;;4956278;29;20185;-86
2021/08/02 03:48:07;;;;;;;1.13;1.13;;;;;;;;;;4957280;28;20229;-86
2021/08/02 03:50:36;;;;;;;1.30;1.20;;;;;;;;;;4956664;29;20209;-86
2021/08/02 03:53:05;;;;;;;1.50;1.40;;;;;;;;;;4957585;29;20192;-86
2021/08/02 03:55:34;;;;;;;1.30;1.20;;;;;;;;;;4957071;29;20204;-86
2021/08/02 03:58:01;;;;;;;2.95;1.35;;;;;;;;;;4956124;28;20231;-87
2021/08/02 04:00:29;;;;;;;1.73;1.08;;;;;;;;;;4956123;29;20185;-86
2021/08/02 04:02:57;;;;;;;0.98;0.90;;;;;;;;;;4955776;29;20189;-86
2021/08/02 04:05:25;;;;;;;1.02;1.02;;;;;;;;;;4956237;29;20201;-86
2021/08/02 04:07:54;;;;;;;0.93;0.93;;;;;;;;;;4956126;28;20229;-85
2021/08/02 04:10:21;;;;;;;1.10;1.10;;;;;;;;;;4956543;29;20193;-86
2021/08/02 04:12:50;;;;;;;1.30;1.20;;;;;;;;;;4955875;29;20182;-85
2021/08/02 04:15:18;;;;;;;1.10;1.10;;;;;;;;;;4955585;29;20682;-86
2021/08/02 04:17:47;;;;;;;1.10;1.10;;;;;;;;;;4955400;28;20221;-86
2021/08/02 04:20:15;;;;;;;1.00;1.00;;;;;;;;;;4955422;29;20204;-86
2021/08/02 04:22:42;;;;;;;1.05;1.00;;;;;;;;;;4955852;29;20249;-86
2021/08/02 04:25:11;;;;;;;1.48;0.90;;;;;;;;;;4955524;29;20205;-86
2021/08/02 04:27:39;;;;;;;0.77;0.77;;;;;;;;;;4955051;28;20245;-86
2021/08/02 04:30:07;;;;;;;0.88;0.88;;;;;;;;;;4955136;29;20193;-86
2021/08/02 04:32:36;;;;;;;0.70;0.70;;;;;;;;;;4955626;29;20209;-86
2021/08/02 04:35:05;;;;;;;1.17;1.17;;;;;;;;;;4955152;29;20190;-86
2021/08/02 04:37:32;;;;;;;1.17;1.17;;;;;;;;;;4955135;28;20607;-85
2021/08/02 04:40:06;;;;;;;1.10;1.05;;;;;;;;;;4953603;29;20216;-86
2021/08/02 04:42:43;;;;;;;0.95;0.95;;;;;;;;;;4952781;28;20583;-86
2021/08/02 04:45:11;;;;;;;1.02;1.02;;;;;;;;;;4953501;29;20252;-86
2021/08/02 04:47:40;;;;;;;0.90;0.90;;;;;;;;;;4958175;28;20225;-86
2021/08/02 04:50:08;;;;;;;1.20;1.20;;;;;;;;;;4953546;29;20197;-86
2021/08/02 04:52:37;;;;;;;1.30;1.30;;;;;;;;;;4954255;29;20215;-85
2021/08/02 04:55:06;;;;;;;1.00;1.00;;;;;;;;;;4954611;29;20197;-86
2021/08/02 04:57:34;;;;;;;1.00;1.00;;;;;;;;;;4955402;28;20229;-85
2021/08/02 05:00:02;;;;;;;1.20;1.10;;;;;;;;;;4954991;29;20556;-86
2021/08/02 05:02:29;;;;;;;1.15;1.05;;;;;;;;;;4954810;29;20190;-86
2021/08/02 05:04:57;;;;;;;0.90;0.90;;;;;;;;;;4954474;29;20588;-86
2021/08/02 05:07:24;;;;;;;1.17;1.10;;;;;;;;;;4954463;28;20213;-86
2021/08/02 05:09:51;;;;;;;0.80;0.80;;;;;;;;;;4954980;29;20531;-86
2021/08/02 05:12:19;;;;;;;1.45;1.35;;;;;;;;;;4955072;29;20219;-86
2021/08/02 05:14:48;;;;;;;1.75;1.63;;;;;;;;;;4954697;29;20191;-86
2021/08/02 05:17:15;;;;;;;1.42;1.33;;;;;;;;;;4954540;28;20224;-85
2021/08/02 05:19:42;;;;;;;1.40;1.30;;;;;;;;;;4954553;29;20200;-86
2021/08/02 05:22:10;;;;;;;1.23;1.17;;;;;;;;;;4954381;29;20204;-86
2021/08/02 05:24:37;;;;;;;2.60;1.35;;;;;;;;;;4954203;29;20205;-87
2021/08/02 05:27:05;;;;;;;1.02;1.02;;;;;;;;;;4953877;28;20235;-86
2021/08/02 05:29:33;;;;;;;1.05;1.05;;;;;;;;;;4954036;29;20201;-86
2021/08/02 05:32:03;;;;;;;1.30;1.20;;;;;;;;;;4954536;29;20216;-87
2021/08/02 05:34:30;;;;;;;0.82;0.82;;;;;;;;;;4954304;29;20178;-86
2021/08/02 05:36:58;;;;;;;1.17;1.17;;;;;;;;;;4953902;28;20229;-87
2021/08/02 05:39:25;;;;;;;0.95;0.95;;;;;;;;;;4953720;29;20204;-86
2021/08/02 05:41:53;;;;;;;1.35;1.25;;;;;;;;;;4953750;29;20201;-86
2021/08/02 05:44:21;;;;;;;1.30;1.20;;;;;;;;;;4954146;29;20652;-87
2021/08/02 05:46:50;;;;;;;1.10;1.10;;;;;;;;;;4954259;28;20204;-87
2021/08/02 05:49:21;;;;;;;1.33;1.23;;;;;;;;;;4954232;29;20618;-88
2021/08/02 05:51:50;;;;;;;3.25;2.08;;;;;;;;;;4954253;29;20215;-87
2021/08/02 05:54:17;;;;;;;1.92;1.75;;;;;;;;;;4955122;28;20217;-88
2021/08/02 05:56:45;;;;;;;1.73;1.30;;;;;;;;;;4958103;28;20189;-87
2021/08/02 05:59:12;;;;;;;1.40;1.30;;;;;;;;;;4957989;29;20571;-87
2021/08/02 06:01:41;;;;;;;1.55;1.45;;;;;;;;;;4957937;29;20185;-88
2021/08/02 06:04:09;;;;;;;1.10;1.10;;;;;;;;;;4957313;29;20684;-88
2021/08/02 06:06:39;;;;;;;1.40;1.30;;;;;;;;;;4957506;28;20205;-87
2021/08/02 06:09:10;;;;;;;1.77;1.67;;;;;;;;;;4957422;29;20212;-88
2021/08/02 06:11:39;;;;;;;1.15;1.15;;;;;;;;;;4957309;29;20237;-87
2021/08/02 06:14:08;;;;;;;1.48;1.38;;;;;;;;;;4957426;29;20273;-89
2021/08/02 06:16:37;;;;;;;0.90;0.90;;;;;;;;;;4957689;28;20312;-88
2021/08/02 06:19:06;;;;;;;0.93;0.93;;;;;;;;;;4957671;29;20277;-89
2021/08/02 06:21:33;;;;;;;1.38;1.17;;;;;;;;;;4957779;29;20601;-87
2021/08/02 06:24:02;;;;;;;2.65;1.52;;;;;;;;;;4957491;29;20201;-88
2021/08/02 06:26:31;;;;;;;1.63;1.52;;;;;;;;;;4957277;29;20272;-87
2021/08/02 06:28:59;;;;;;;2.55;1.83;;;;;;;;;;4956326;29;20233;-87
2021/08/02 06:31:28;;;;;;;1.45;1.35;;;;;;;;;;4956997;29;20213;-87
2021/08/02 06:33:57;;;;;;;1.77;1.60;;;;;;;;;;4954739;29;20207;-88
2021/08/02 06:36:24;;;;;;;5.28;3.15;;;;;;;;;;4954948;29;20205;-87
2021/08/02 06:38:53;;;;;;;2.63;1.80;;;;;;;;;;4956017;29;20220;-88
2021/08/02 06:41:22;;;;;;;2.13;1.75;;;;;;;;;;4957002;29;20181;-89
2021/08/02 06:43:52;;;;;;;1.35;1.33;;;;;;;;;;4956546;29;20752;-88
2021/08/02 06:46:20;;;;;;;1.55;1.40;;;;;;;;;;4956861;29;20667;-88
2021/08/02 06:48:48;;;;;;;1.75;1.30;;;;;;;;;;4955785;29;20221;-87
2021/08/02 06:51:19;;;;;;;1.10;1.10;;;;;;;;;;4956570;29;20201;-88
2021/08/02 06:53:46;;;;;;;1.40;1.30;;;;;;;;;;4956718;29;20209;-87
2021/08/02 06:56:15;;;;;;;2.05;1.50;;;;;;;;;;4956480;29;20588;-87
2021/08/02 06:58:44;;;;;;;1.58;1.48;;;;;;;;;;4956459;29;20221;-88
2021/08/02 07:01:12;;;;;;;1.55;1.45;;;;;;;;;;4956765;29;20185;-88
2021/08/02 07:03:40;;;;;;;1.30;1.20;;;;;;;;;;4956757;29;20189;-87
2021/08/02 07:06:07;;;;;;;1.75;1.55;;;;;;;;;;4956169;28;20193;-86
2021/08/02 07:08:38;;;;;;;1.75;1.65;;;;;;;;;;4956087;29;20229;-88
2021/08/02 07:11:06;;;;;;;2.10;1.67;;;;;;;;;;4956196;29;20181;-88
2021/08/02 07:13:34;;;;;;;2.25;1.77;;;;;;;;;;4956103;29;20213;-89
2021/08/02 07:16:05;;;;;;;4.00;1.73;;;;;;;;;;4956169;29;20189;-88
2021/08/02 07:18:34;;;;;;;1.58;1.40;;;;;;;;;;4955987;29;20235;-89
2021/08/02 07:21:02;;;;;;;1.50;1.40;;;;;;;;;;4956250;29;20257;-87
2021/08/02 07:23:29;;;;;;;1.38;1.27;;;;;;;;;;4956248;29;20196;-87
2021/08/02 07:25:58;;;;;;;1.60;1.50;;;;;;;;;;4980684;23;20238;-87
2021/08/02 07:28:25;;;;;;;1.50;1.33;;;;;;;;;;4996573;28;20203;-87
2021/08/02 07:30:54;;;;;;;1.15;1.05;;;;;;;;;;4998948;28;20184;-88
2021/08/02 07:33:23;;;;;;;1.30;1.20;;;;;;;;;;4996242;28;20211;-87
2021/08/02 07:35:52;;;;;;;1.45;1.35;;;;;;;;;;4995956;28;20220;-88
2021/08/02 07:38:19;;;;;;;1.25;1.15;;;;;;;;;;4995599;28;20184;-88
2021/08/02 07:40:46;;;;;;;0.98;0.98;;;;;;;;;;4996055;28;20214;-88
2021/08/02 07:43:14;;;;;;;1.77;1.45;;;;;;;;;;4995906;28;20192;-87
2021/08/02 07:45:41;;;;;;;1.95;1.20;;;;;;;;;;4996313;28;20230;-86
2021/08/02 07:48:09;;;;;;;1.00;1.00;;;;;;;;;;4994698;28;20203;-86
2021/08/02 07:50:37;;;;;;;1.58;1.45;;;;;;;;;;4995348;28;20192;-86
2021/08/02 07:53:05;;;;;;;2.22;1.77;;;;;;;;;;4994443;28;20223;-85
2021/08/02 07:55:32;;;;;;;1.80;1.60;;;;;;;;;;4995567;28;20235;-88
2021/08/02 07:58:01;;;;;;;1.55;1.45;;;;;;;;;;4994423;28;20204;-92
2021/08/02 08:00:28;;;;;;;1.92;1.83;;;;;;;;;;4996965;28;20194;-85
2021/08/02 08:02:56;;;;;;;2.72;2.53;;;;;;;;;;4995311;28;20200;-85
2021/08/02 08:05:23;;;;;;;2.25;2.05;;;;;;;;;;4995845;28;20223;-86
2021/08/02 08:07:53;;;;;;;1.98;1.83;;;;;;;;;;4996474;28;20191;-85
2021/08/02 08:10:24;;;;;;;1.83;1.73;;;;;;;;;;4996080;28;20184;-85
2021/08/02 08:12:52;;;;;;;1.80;1.70;;;;;;;;;;4995691;28;20208;-85
2021/08/02 08:15:23;;;;;;;2.42;2.10;;;;;;;;;;4995843;28;20235;-84
2021/08/02 08:17:50;;;;;;;1.85;1.75;;;;;;;;;;4995314;28;20188;-85
2021/08/02 08:20:20;;;;;;;2.33;2.15;;;;;;;;;;4995202;28;20203;-85
2021/08/02 08:22:48;;;;;;;2.75;2.55;;;;;;;;;;4996198;28;20195;-85
2021/08/02 08:25:18;;;;;;;2.20;2.10;;;;;;;;;;4993106;28;20231;-85
2021/08/02 08:27:46;;;;;;;2.38;2.17;;;;;;;;;;4977285;28;20676;-85
2021/08/02 08:30:14;;;;;;;2.45;2.03;;;;;;;;;;4976880;28;20208;-85
2021/08/02 08:32:42;;;;;;;2.95;2.45;;;;;;;;;;4977222;28;20187;-84
2021/08/02 08:35:11;;;;;;;2.05;1.95;;;;;;;;;;4977358;28;20188;-85
2021/08/02 08:37:40;;;;;;;2.20;2.10;;;;;;;;;;4977215;28;20201;-85
2021/08/02 08:40:10;;;;;;;2.67;1.90;;;;;;;;;;4976184;28;20557;-86
2021/08/02 08:42:40;;;;;;;1.70;1.60;;;;;;;;;;4976132;28;20657;-85
2021/08/02 08:45:09;;;;;;;3.03;1.83;;;;;;;;;;4975029;28;20185;-85
2021/08/02 08:47:37;;;;;;;1.90;1.80;;;;;;;;;;4975523;28;20239;-86
2021/08/02 08:50:07;;;;;;;2.28;2.08;;;;;;;;;;4974563;28;20192;-85
2021/08/02 08:52:36;;;;;;;2.28;2.17;;;;;;;;;;4974149;28;20200;-86
2021/08/02 08:55:08;;;;;;;2.05;1.95;;;;;;;;;;4975912;28;20212;-84
2021/08/02 08:57:35;;;;;;;2.10;2.00;;;;;;;;;;4976941;28;20184;-85
2021/08/02 09:00:07;;;;;;;1.73;1.63;;;;;;;;;;4976226;28;20559;-85
2021/08/02 09:02:35;;;;;;;1.65;1.55;;;;;;;;;;4976688;28;20192;-85
2021/08/02 09:05:04;;;;;;;2.50;2.30;;;;;;;;;;4976876;28;20276;-83
2021/08/02 09:07:37;;;;;;;1.90;1.80;;;;;;;;;;4977828;28;20192;-84
2021/08/02 09:10:07;;;;;;;2.25;1.92;;;;;;;;;;4977053;28;20290;-85
2021/08/02 09:12:34;;;;;;;2.40;2.20;;;;;;;;;;4977107;28;20189;-85
2021/08/02 09:15:06;;;;;;;2.30;2.20;;;;;;;;;;4977457;28;20220;-84
2021/08/02 09:17:36;;;;;;;1.90;1.80;;;;;;;;;;4977509;28;20193;-84
2021/08/02 09:20:06;;;;;;;2.13;2.03;;;;;;;;;;4977190;28;20724;-85
2021/08/02 09:22:37;;;;;;;2.50;2.30;;;;;;;;;;4977212;28;20177;-84
2021/08/02 09:25:08;;;;;;;2.30;2.00;;;;;;;;;;4977930;28;20199;-85
2021/08/02 09:27:36;;;;;;;2.25;2.05;;;;;;;;;;4977818;28;20196;-84
2021/08/02 09:30:21;;;;;;;1.98;1.63;;;;;;;;;;4979109;28;20188;-83
2021/08/02 09:32:57;;;;;;;3.10;1.83;;;;;;;;;;4982229;28;20196;-85
2021/08/02 09:35:30;;;;;;;1.92;1.83;;;;;;;;;;4981340;28;20232;-84
2021/08/02 09:38:01;;;;;;;2.70;2.50;;;;;;;;;;4982346;28;20196;-85
2021/08/02 09:40:28;;;;;;;2.05;1.85;;;;;;;;;;4982707;28;20280;-84
2021/08/02 09:42:58;;;;;;;1.98;1.88;;;;;;;;;;4982059;28;20181;-84
2021/08/02 09:45:27;;;;;;;2.08;1.98;;;;;;;;;;4982050;28;20225;-85
2021/08/02 09:47:55;;;;;;;3.00;2.70;;;;;;;;;;4982439;28;20243;-85
2021/08/02 09:50:31;;;;;;;1.58;1.48;;;;;;;;;;4981882;28;20204;-84
2021/08/02 09:52:59;;;;;;;1.60;1.50;;;;;;;;;;4982335;28;20188;-84
2021/08/02 09:55:27;;;;;;;1.85;1.67;;;;;;;;;;4981066;28;20235;-86
2021/08/02 09:57:56;;;;;;;2.20;2.00;;;;;;;;;;4982232;28;20185;-85
2021/08/02 10:00:25;;;;;;;2.60;2.40;;;;;;;;;;4981033;28;20185;-85
2021/08/02 10:02:53;;;;;;;2.60;2.40;;;;;;;;;;4968906;28;20197;-85
2021/08/02 10:05:22;;;;;;;2.42;2.22;;;;;;;;;;4960728;29;20225;-84
2021/08/02 10:07:50;;;;;;;2.22;2.03;;;;;;;;;;4962418;29;20201;-85
2021/08/02 10:10:18;;;;;;;3.67;2.28;;;;;;;;;;4962289;29;20556;-84
2021/08/02 10:12:49;;;;;;;2.40;2.20;;;;;;;;;;4963810;29;20197;-83
2021/08/02 10:15:18;;;;;;;2.78;2.58;;;;;;;;;;4963629;29;20235;-85
2021/08/02 10:17:49;;;;;;;2.55;1.80;;;;;;;;;;4962780;28;20551;-85
2021/08/02 10:20:28;;;;;;;2.05;1.88;;;;;;;;;;4962486;29;20228;-84
2021/08/02 10:22:58;;;;;;;2.47;2.28;;;;;;;;;;4963589;29;20272;-84
2021/08/02 10:25:37;;;;;;;2.75;2.30;;;;;;;;;;4968571;28;20601;-83
2021/08/02 10:28:10;;;;;;;3.67;2.17;;;;;;;;;;4981223;28;20188;-85
2021/08/02 10:30:39;;;;;;;2.28;1.83;;;;;;;;;;4979871;28;20189;-84
2021/08/02 10:33:08;;;;;;;1.90;1.80;;;;;;;;;;4979805;28;20188;-86
2021/08/02 10:35:43;;;;;;;1.88;1.73;;;;;;;;;;4979430;28;20228;-82
2021/08/02 10:38:13;;;;;;;1.65;1.55;;;;;;;;;;4975797;28;20585;-84
2021/08/02 10:40:52;;;;;;;1.77;1.67;;;;;;;;;;4975373;28;20283;-84
2021/08/02 10:43:31;;;;;;;1.73;1.63;;;;;;;;;;4977301;28;20193;-83
2021/08/02 10:46:00;;;;;;;2.50;2.33;;;;;;;;;;4977298;28;20600;-84
2021/08/02 10:48:30;;;;;;;2.00;1.80;;;;;;;;;;4977051;28;20195;-83
2021/08/02 10:51:10;;;;;;;1.70;1.60;;;;;;;;;;4976682;28;20185;-83
2021/08/02 10:53:37;;;;;;;1.55;1.45;;;;;;;;;;4976821;28;20208;-84
2021/08/02 10:56:05;;;;;;;2.90;1.88;;;;;;;;;;4976407;28;20235;-84
2021/08/02 10:58:37;;;;;;;1.80;1.70;;;;;;;;;;4961135;28;20252;-83
2021/08/02 11:01:06;;;;;;;2.70;1.30;;;;;;;;;;4957013;29;20205;-83
2021/08/02 11:03:37;;;;;;;1.77;1.67;;;;;;;;;;4961823;28;20192;-84
2021/08/02 11:06:14;;;;;;;1.20;1.17;;;;;;;;;;4976114;28;20228;-84
2021/08/02 11:08:50;;;;;;;1.55;1.45;;;;;;;;;;4976455;28;20203;-84
2021/08/02 11:11:23;;;;;;;1.83;1.65;;;;;;;;;;4976531;28;20287;-84
2021/08/02 11:13:52;;;;;;;1.48;1.38;;;;;;;;;;4975584;28;20198;-84
2021/08/02 11:16:20;;;;;;;1.60;1.50;;;;;;;;;;4975332;28;20597;-83
2021/08/02 11:18:49;;;;;;;1.67;1.58;;;;;;;;;;4975619;28;20204;-83
2021/08/02 11:21:25;;;;;;;1.50;1.40;;;;;;;;;;4975522;28;20189;-83
2021/08/02 11:23:55;;;;;;;1.60;1.50;;;;;;;;;;4975144;28;20916;-84
2021/08/02 11:26:23;;;;;;;2.78;1.50;;;;;;;;;;4974770;28;20232;-84
2021/08/02 11:28:54;;;;;;;1.63;1.50;;;;;;;;;;4975351;28;20193;-84
2021/08/02 11:31:29;;;;;;;2.63;2.42;;;;;;;;;;4975527;28;20204;-85
2021/08/02 11:33:58;;;;;;;2.17;1.98;;;;;;;;;;4975149;28;20212;-85
2021/08/02 11:36:25;;;;;;;2.10;1.90;;;;;;;;;;4974457;28;20228;-85
2021/08/02 11:38:52;;;;;;;2.15;1.95;;;;;;;;;;4975091;28;20191;-84
2021/08/02 11:41:30;;;;;;;1.73;1.63;;;;;;;;;;4975110;28;20192;-86
2021/08/02 11:43:58;;;;;;;2.25;2.10;;;;;;;;;;4975055;28;20192;-84
2021/08/02 11:46:26;;;;;;;2.00;1.80;;;;;;;;;;4973508;28;20228;-84
2021/08/02 11:48:54;;;;;;;1.52;1.42;;;;;;;;;;4974688;28;20279;-84
2021/08/02 11:51:23;;;;;;;1.83;1.73;;;;;;;;;;4974715;28;20726;-84
2021/08/02 11:53:50;;;;;;;2.25;2.03;;;;;;;;;;4974832;28;20192;-83
2021/08/02 11:56:18;;;;;;;1.85;1.75;;;;;;;;;;4967108;28;20229;-83
2021/08/02 11:58:47;;;;;;;1.85;1.75;;;;;;;;;;4955583;29;20222;-85
2021/08/02 12:01:16;;;;;;;2.00;1.90;;;;;;;;;;4955203;29;20186;-85
2021/08/02 12:03:47;;;;;;;2.03;1.92;;;;;;;;;;4955343;29;20587;-85
2021/08/02 12:06:15;;;;;;;1.77;1.67;;;;;;;;;;4955244;29;20571;-85
2021/08/02 12:08:54;;;;;;;2.95;2.13;;;;;;;;;;4955239;29;20192;-84
2021/08/02 12:11:22;;;;;;;2.42;2.22;;;;;;;;;;4962205;28;20238;-85
2021/08/02 12:13:51;;;;;;;1.90;1.80;;;;;;;;;;4973962;28;20208;-85
2021/08/02 12:16:31;;;;;;;2.30;2.20;;;;;;;;;;4974284;28;20228;-85
2021/08/02 12:19:07;;;;;;;2.70;2.50;;;;;;;;;;4974192;28;20188;-85
2021/08/02 12:21:36;;;;;;;2.00;1.90;;;;;;;;;;4974470;28;20190;-85
2021/08/02 12:24:07;;;;;;;2.35;2.15;;;;;;;;;;4974220;28;20189;-86
2021/08/02 12:27:02;;;;;;;1.80;1.70;;;;;;;;;;4973752;28;20291;-84
2021/08/02 12:29:31;;;;;;;2.97;2.28;;;;;;;;;;4942343;28;20211;-84
2021/08/02 12:32:00;;;;;;;2.78;1.80;;;;;;;;;;4974367;28;20181;-85
2021/08/02 12:34:29;;;;;;;2.00;1.90;;;;;;;;;;4973951;28;20651;-84
2021/08/02 12:36:58;;;;;;;1.98;1.88;;;;;;;;;;4974085;28;20730;-84
2021/08/02 12:39:29;;;;;;;1.90;1.80;;;;;;;;;;4974207;28;20189;-84
2021/08/02 12:41:58;;;;;;;2.40;2.20;;;;;;;;;;4973923;28;20651;-86
2021/08/02 12:44:31;;;;;;;3.45;2.35;;;;;;;;;;4965166;28;20201;-86
2021/08/02 12:47:00;;;;;;;2.20;2.10;;;;;;;;;;4969744;28;20216;-85
2021/08/02 12:49:28;;;;;;;2.42;2.25;;;;;;;;;;4973068;28;20193;-86
2021/08/02 12:51:59;;;;;;;2.17;2.08;;;;;;;;;;4968181;28;20204;-85
2021/08/02 12:54:29;;;;;;;2.83;2.63;;;;;;;;;;4973467;28;20635;-86
2021/08/02 12:56:56;;;;;;;3.47;3.10;;;;;;;;;;4973753;28;20239;-85
2021/08/02 12:59:25;;;;;;;2.92;2.65;;;;;;;;;;4973458;28;20649;-84
2021/08/02 13:01:52;;;;;;;2.78;2.58;;;;;;;;;;4973894;28;20189;-85
2021/08/02 13:04:19;;;;;;;2.80;2.60;;;;;;;;;;4972612;28;20204;-84
2021/08/02 13:06:49;;;;;;;2.40;2.20;;;;;;;;;;4954561;29;20227;-85
2021/08/02 13:09:16;;;;;;;2.80;2.60;;;;;;;;;;4954672;29;20193;-84
2021/08/02 13:11:45;;;;;;;2.13;2.03;;;;;;;;;;4954276;29;20212;-84
2021/08/02 13:14:13;;;;;;;2.25;2.00;;;;;;;;;;4954051;29;20212;-85
2021/08/02 13:16:43;;;;;;;2.58;2.38;;;;;;;;;;4954202;29;20229;-85
2021/08/02 13:19:11;;;;;;;1.92;1.83;;;;;;;;;;4954485;29;20186;-84
2021/08/02 13:21:38;;;;;;;2.55;2.15;;;;;;;;;;4954195;29;20188;-85
2021/08/02 13:26:56;;;;;;;3.35;2.20;;;;;;;;;;4953250;28;20243;-84
2021/08/02 13:29:25;;;;;;;2.00;1.83;;;;;;;;;;4953617;29;20219;-85
2021/08/02 13:31:55;;;;;;;1.60;1.50;;;;;;;;;;4954844;28;20205;-84
2021/08/02 13:34:24;;;;;;;1.50;1.40;;;;;;;;;;4954611;28;20181;-85
2021/08/02 13:36:52;;;;;;;1.60;1.50;;;;;;;;;;4972807;28;20228;-85
2021/08/02 13:39:20;;;;;;;1.63;1.52;;;;;;;;;;4962242;28;20201;-84
2021/08/02 13:41:47;;;;;;;1.83;1.67;;;;;;;;;;4953834;29;20205;-84
2021/08/02 13:44:16;;;;;;;1.88;1.77;;;;;;;;;;4954347;28;20212;-85
2021/08/02 13:46:46;;;;;;;1.95;1.85;;;;;;;;;;4973084;28;20737;-86
2021/08/02 13:49:14;;;;;;;2.17;2.08;;;;;;;;;;4973616;28;20189;-86
2021/08/02 13:51:42;;;;;;;1.83;1.73;;;;;;;;;;4973205;28;20738;-85
2021/08/02 13:54:10;;;;;;;2.65;2.45;;;;;;;;;;4973326;28;20568;-86
2021/08/02 13:56:39;;;;;;;1.90;1.80;;;;;;;;;;4973178;28;20225;-86
2021/08/02 13:59:07;;;;;;;2.25;1.90;;;;;;;;;;4973478;28;20184;-86
2021/08/02 14:01:37;;;;;;;1.70;1.60;;;;;;;;;;4973584;28;20672;-85
2021/08/02 14:04:05;;;;;;;2.20;2.00;;;;;;;;;;4972848;28;20196;-84
2021/08/02 14:06:33;;;;;;;1.95;1.85;;;;;;;;;;4972624;28;20236;-86
2021/08/02 14:09:02;;;;;;;2.03;1.92;;;;;;;;;;4973064;28;20185;-85
2021/08/02 14:11:30;;;;;;;2.55;2.10;;;;;;;;;;4973008;28;20726;-85
2021/08/02 14:14:00;;;;;;;2.20;2.10;;;;;;;;;;4972611;28;20208;-84
2021/08/02 14:16:32;;;;;;;2.17;1.45;;;;;;;;;;4973347;28;20874;-85
2021/08/02 14:19:09;;;;;;;1.70;1.60;;;;;;;;;;4976314;28;20235;-87
2021/08/02 14:21:38;;;;;;;2.25;2.13;;;;;;;;;;4976867;28;20779;-86
2021/08/02 14:24:08;;;;;;;2.35;2.15;;;;;;;;;;4976186;28;20200;-86
2021/08/02 14:26:36;;;;;;;1.90;1.80;;;;;;;;;;4975829;28;20243;-85
2021/08/02 14:29:05;;;;;;;1.90;1.80;;;;;;;;;;4975928;28;20192;-85
2021/08/02 14:31:33;;;;;;;2.30;2.13;;;;;;;;;;4975760;28;20204;-86
2021/08/02 14:34:01;;;;;;;1.90;1.80;;;;;;;;;;4975859;28;20208;-84
2021/08/02 14:36:31;;;;;;;2.58;2.38;;;;;;;;;;4975938;28;20299;-84
2021/08/02 14:39:01;;;;;;;2.80;2.60;;;;;;;;;;4975954;28;20208;-85
2021/08/02 14:41:32;;;;;;;2.22;2.08;;;;;;;;;;4976187;28;20199;-85
2021/08/02 14:44:01;;;;;;;1.80;1.70;;;;;;;;;;4975776;28;20254;-85
2021/08/02 14:46:31;;;;;;;1.90;1.80;;;;;;;;;;4974184;28;20303;-86
2021/08/02 14:49:02;;;;;;;1.88;1.77;;;;;;;;;;4975929;28;20206;-86
2021/08/02 14:51:37;;;;;;;2.10;1.90;;;;;;;;;;4974125;28;20555;-85
2021/08/02 14:54:07;;;;;;;1.90;1.80;;;;;;;;;;4974525;28;20206;-86
2021/08/02 14:56:37;;;;;;;2.00;1.90;;;;;;;;;;4975686;28;20231;-85
2021/08/02 14:59:07;;;;;;;2.17;2.08;;;;;;;;;;4975254;28;20575;-86
2021/08/02 15:01:37;;;;;;;2.17;2.08;;;;;;;;;;4976947;28;20181;-85